createdAt,value
2023-03-28T00:01:10.202Z,99.90
2023-03-28T00:03:40.291Z,99.90
2023-03-28T00:06:16.286Z,99.90
2023-03-28T00:11:20.024Z,99.90
2023-03-28T00:14:00.830Z,99.90
2023-03-28T00:16:32.599Z,99.90
2023-03-28T00:19:06.819Z,99.90
2023-03-28T00:21:37.386Z,99.90
2023-03-28T00:24:07.016Z,99.90
2023-03-28T00:26:35.756Z,99.90
2023-03-28T00:29:05.870Z,99.90
2023-03-28T00:34:02.452Z,99.90
2023-03-28T00:36:32.571Z,99.90
2023-03-28T00:39:01.425Z,99.90
2023-03-28T00:41:32.824Z,99.90
2023-03-28T00:44:00.777Z,99.90
2023-03-28T00:46:39.648Z,99.90
2023-03-28T00:49:13.927Z,99.90
2023-03-28T00:51:50.237Z,99.90
2023-03-28T00:54:20.037Z,99.90
2023-03-28T00:56:50.837Z,99.90
2023-03-28T00:59:20.244Z,99.90
2023-03-28T01:01:47.928Z,99.90
2023-03-28T01:04:20.461Z,99.90
2023-03-28T01:06:49.978Z,99.90
2023-03-28T01:09:18.804Z,99.90
2023-03-28T01:14:21.459Z,99.90
2023-03-28T01:20:02.497Z,99.90
2023-03-28T01:23:12.679Z,99.90
2023-03-28T01:26:08.536Z,99.90
2023-03-28T01:29:11.120Z,99.90
2023-03-28T01:32:16.801Z,99.90
2023-03-28T01:35:22.168Z,99.90
2023-03-28T01:38:14.781Z,99.90
2023-03-28T01:40:58.585Z,99.90
2023-03-28T01:43:52.901Z,99.90
2023-03-28T01:46:31.641Z,99.90
2023-03-28T01:49:27.271Z,99.90
2023-03-28T01:52:03.152Z,99.90
2023-03-28T01:54:49.134Z,99.90
2023-03-28T01:57:40.290Z,99.90
2023-03-28T02:00:15.782Z,99.90
2023-03-28T02:03:06.864Z,99.90
2023-03-28T02:05:36.456Z,99.90
2023-03-28T02:08:08.375Z,99.90
2023-03-28T02:10:38.965Z,99.90
2023-03-28T02:13:17.925Z,99.90
2023-03-28T02:15:52.633Z,99.90
2023-03-28T02:18:29.685Z,99.90
2023-03-28T02:21:06.707Z,99.90
2023-03-28T02:23:52.556Z,99.90
2023-03-28T02:26:22.804Z,99.90
2023-03-28T02:28:53.778Z,99.90
2023-03-28T02:31:22.392Z,99.90
2023-03-28T02:33:50.994Z,99.90
2023-03-28T02:36:27.056Z,99.90
2023-03-28T02:41:29.417Z,99.90
2023-03-28T02:44:21.192Z,99.90
2023-03-28T02:46:59.057Z,99.90
2023-03-28T02:49:49.555Z,99.90
2023-03-28T02:52:38.086Z,99.90
2023-03-28T02:57:32.656Z,99.90
2023-03-28T03:00:12.104Z,99.90
2023-03-28T03:02:42.143Z,99.90
2023-03-28T03:05:10.095Z,99.90
2023-03-28T03:07:37.780Z,99.90
2023-03-28T03:10:11.382Z,99.90
2023-03-28T03:15:07.666Z,99.90
2023-03-28T03:17:34.674Z,99.90
2023-03-28T03:22:34.560Z,99.90
2023-03-28T03:27:37.545Z,99.90
2023-03-28T03:37:28.355Z,99.90
2023-03-28T03:39:55.676Z,99.90
2023-03-28T03:44:51.085Z,99.90
2023-03-28T03:52:14.799Z,99.90
2023-03-28T03:54:42.471Z,99.90
2023-03-28T03:57:09.607Z,99.90
2023-03-28T03:59:37.174Z,99.90
2023-03-28T04:04:32.269Z,99.90
2023-03-28T04:09:28.061Z,99.90
2023-03-28T04:11:55.622Z,99.90
2023-03-28T04:16:50.869Z,99.90
2023-03-28T04:19:19.089Z,99.90
2023-03-28T04:21:48.505Z,99.90
2023-03-28T04:24:17.199Z,99.90
2023-03-28T04:29:13.544Z,99.90
2023-03-28T04:46:30.540Z,99.90
2023-03-28T04:48:57.826Z,99.90
2023-03-28T04:56:20.029Z,99.90
2023-03-28T04:58:47.285Z,99.90
2023-03-28T05:06:10.085Z,99.90
2023-03-28T05:13:34.830Z,99.90
2023-03-28T05:23:24.923Z,99.90
2023-03-28T05:25:52.987Z,99.90
2023-03-28T05:38:11.844Z,99.90
2023-03-28T05:43:06.651Z,99.90
2023-03-28T05:52:56.506Z,99.90
2023-03-28T06:10:12.491Z,99.90
2023-03-28T06:15:09.244Z,99.90
2023-03-28T06:20:06.693Z,99.90
2023-03-28T06:25:01.567Z,99.90
2023-03-28T06:29:56.921Z,99.90
2023-03-28T06:54:36.502Z,99.90
2023-03-28T07:06:55.249Z,99.90
2023-03-28T07:21:40.759Z,99.90
2023-03-28T07:24:08.089Z,99.90
2023-03-28T07:29:03.469Z,99.90
2023-03-28T07:31:31.133Z,99.90
2023-03-28T07:33:58.991Z,99.90
2023-03-28T07:36:28.458Z,99.90
2023-03-28T07:38:55.525Z,99.90
2023-03-28T07:41:23.098Z,99.90
2023-03-28T07:46:21.010Z,99.90
2023-03-28T07:48:48.170Z,99.90
2023-03-28T07:51:16.118Z,99.90
2023-03-28T07:53:43.521Z,95.70
2023-03-28T07:56:12.205Z,89.00
2023-03-28T07:58:41.236Z,89.40
2023-03-28T08:01:13.932Z,91.50
2023-03-28T08:03:41.958Z,93.50
2023-03-28T08:06:20.537Z,91.20
2023-03-28T08:08:56.079Z,91.40
2023-03-28T08:11:23.609Z,83.80
2023-03-28T08:13:50.671Z,79.00
2023-03-28T08:16:18.352Z,78.30
2023-03-28T08:18:45.586Z,74.60
2023-03-28T08:23:40.944Z,70.90
2023-03-28T08:26:09.244Z,71.40
2023-03-28T08:28:38.087Z,67.00
2023-03-28T08:31:14.989Z,62.70
2023-03-28T08:33:44.040Z,59.90
2023-03-28T08:36:15.964Z,58.90
2023-03-28T08:38:45.126Z,59.90
2023-03-28T08:41:31.101Z,59.70
2023-03-28T08:44:17.025Z,57.60
2023-03-28T08:46:46.921Z,56.50
2023-03-28T08:49:19.003Z,57.20
2023-03-28T08:51:52.908Z,55.00
2023-03-28T08:54:31.665Z,53.80
2023-03-28T08:57:02.842Z,52.40
2023-03-28T08:59:48.136Z,54.40
2023-03-28T09:02:22.488Z,53.80
2023-03-28T09:04:50.673Z,54.30
2023-03-28T09:07:40.614Z,52.50
2023-03-28T09:10:36.856Z,53.50
2023-03-28T09:13:54.871Z,55.40
2023-03-28T09:16:27.360Z,55.10
2023-03-28T09:19:21.172Z,58.40
2023-03-28T09:22:25.186Z,64.10
2023-03-28T09:25:14.544Z,68.80
2023-03-28T09:28:22.757Z,75.40
2023-03-28T09:30:52.135Z,63.50
2023-03-28T09:33:27.211Z,55.60
2023-03-28T09:35:57.326Z,57.20
2023-03-28T09:38:45.760Z,55.60
2023-03-28T09:41:22.165Z,56.10
2023-03-28T09:43:54.579Z,52.90
2023-03-28T09:46:31.908Z,55.90
2023-03-28T09:48:59.468Z,55.50
2023-03-28T09:51:26.945Z,57.60
2023-03-28T09:53:54.001Z,62.10
2023-03-28T09:56:40.967Z,63.90
2023-03-28T09:59:29.021Z,65.70
2023-03-28T10:01:57.641Z,63.70
2023-03-28T10:04:28.145Z,62.70
2023-03-28T10:07:19.727Z,65.00
2023-03-28T10:09:51.339Z,66.60
2023-03-28T10:12:26.369Z,71.10
2023-03-28T10:14:53.604Z,71.20
2023-03-28T10:17:28.436Z,71.00
2023-03-28T10:20:10.866Z,70.40
2023-03-28T10:22:40.092Z,71.30
2023-03-28T10:25:15.322Z,70.30
2023-03-28T10:27:44.191Z,71.20
2023-03-28T10:30:14.079Z,71.80
2023-03-28T10:32:41.944Z,73.60
2023-03-28T10:35:09.916Z,74.00
2023-03-28T10:37:37.462Z,75.30
2023-03-28T10:40:23.164Z,76.40
2023-03-28T10:42:51.200Z,75.40
2023-03-28T10:45:45.888Z,77.40
2023-03-28T10:48:25.841Z,78.10
2023-03-28T10:50:58.949Z,73.10
2023-03-28T10:53:39.862Z,72.20
2023-03-28T10:56:24.980Z,74.90
2023-03-28T10:59:21.546Z,80.20
2023-03-28T11:02:09.855Z,77.50
2023-03-28T11:05:09.203Z,77.30
2023-03-28T11:07:45.507Z,79.90
2023-03-28T11:10:30.900Z,82.70
2023-03-28T11:13:06.987Z,85.70
2023-03-28T11:16:00.254Z,86.60
2023-03-28T11:18:47.932Z,89.80
2023-03-28T11:21:24.856Z,85.80
2023-03-28T11:24:26.842Z,84.10
2023-03-28T11:27:16.115Z,83.90
2023-03-28T11:29:44.454Z,81.20
2023-03-28T11:32:36.612Z,78.10
2023-03-28T11:35:27.226Z,79.90
2023-03-28T11:38:14.519Z,82.80
2023-03-28T11:40:52.986Z,80.30
2023-03-28T11:43:31.103Z,77.80
2023-03-28T11:46:11.368Z,77.90
2023-03-28T11:48:54.059Z,78.00
2023-03-28T11:51:32.421Z,74.50
2023-03-28T11:54:27.221Z,71.80
2023-03-28T11:57:07.734Z,72.60
2023-03-28T11:59:44.047Z,76.10
2023-03-28T12:02:27.702Z,79.50
2023-03-28T12:05:02.841Z,77.20
2023-03-28T12:08:23.558Z,81.40
2023-03-28T12:10:55.737Z,86.80
2023-03-28T12:13:46.781Z,93.10
2023-03-28T12:16:27.219Z,99.90
2023-03-28T12:18:58.771Z,99.90
2023-03-28T12:21:31.590Z,99.90
2023-03-28T12:24:13.803Z,99.90
2023-03-28T12:27:19.348Z,99.60
2023-03-28T12:30:16.398Z,95.70
2023-03-28T12:33:13.232Z,96.10
2023-03-28T12:36:03.524Z,94.80
2023-03-28T12:38:34.327Z,93.50
2023-03-28T12:41:01.479Z,96.10
2023-03-28T12:43:51.912Z,96.70
2023-03-28T12:46:25.452Z,93.80
2023-03-28T12:49:00.997Z,91.60
2023-03-28T12:51:38.948Z,90.40
2023-03-28T12:54:17.110Z,87.80
2023-03-28T12:56:48.024Z,88.80
2023-03-28T12:59:40.941Z,85.50
2023-03-28T13:02:18.134Z,86.30
2023-03-28T13:05:20.945Z,87.00
2023-03-28T13:07:56.822Z,89.00
2023-03-28T13:11:15.723Z,91.00
2023-03-28T13:13:51.366Z,95.30
2023-03-28T13:16:37.609Z,99.50
2023-03-28T13:19:10.817Z,99.90
2023-03-28T13:21:41.717Z,99.90
2023-03-28T13:24:36.287Z,98.30
2023-03-28T13:27:11.573Z,98.00
2023-03-28T13:29:57.815Z,97.80
2023-03-28T13:32:25.991Z,96.90
2023-03-28T13:34:59.992Z,96.90
2023-03-28T13:37:47.709Z,93.20
2023-03-28T13:40:54.625Z,92.50
2023-03-28T13:43:27.783Z,93.80
2023-03-28T13:46:41.956Z,96.60
2023-03-28T13:49:23.937Z,98.30
2023-03-28T13:51:57.478Z,98.30
2023-03-28T13:54:28.192Z,98.90
2023-03-28T13:57:05.512Z,97.80
2023-03-28T13:59:38.613Z,97.00
2023-03-28T14:02:21.652Z,94.40
2023-03-28T14:04:57.663Z,94.50
2023-03-28T14:07:29.558Z,93.80
2023-03-28T14:09:58.217Z,93.90
2023-03-28T14:12:29.471Z,92.50
2023-03-28T14:14:59.918Z,93.40
2023-03-28T14:17:33.959Z,93.60
2023-03-28T14:20:05.520Z,94.70
2023-03-28T14:22:43.177Z,99.90
2023-03-28T14:25:21.666Z,99.90
2023-03-28T14:27:51.342Z,99.90
2023-03-28T14:30:28.642Z,99.90
2023-03-28T14:33:14.633Z,97.80
2023-03-28T14:35:43.325Z,98.20
2023-03-28T14:38:26.687Z,96.40
2023-03-28T14:40:55.945Z,96.50
2023-03-28T14:43:29.178Z,92.70
2023-03-28T14:46:02.702Z,93.00
2023-03-28T14:48:30.595Z,94.30
2023-03-28T14:51:00.636Z,92.90
2023-03-28T14:53:31.574Z,93.50
2023-03-28T14:56:06.804Z,94.50
2023-03-28T14:58:37.048Z,94.80
2023-03-28T15:01:06.320Z,92.50
2023-03-28T15:03:33.406Z,93.20
2023-03-28T15:06:02.915Z,93.00
2023-03-28T15:08:39.911Z,93.00
2023-03-28T15:11:22.384Z,91.40
2023-03-28T15:14:14.316Z,90.30
2023-03-28T15:16:45.627Z,91.10
2023-03-28T15:19:27.243Z,91.50
2023-03-28T15:22:02.456Z,92.10
2023-03-28T15:24:29.963Z,93.10
2023-03-28T15:27:01.522Z,93.80
2023-03-28T15:29:33.220Z,95.10
2023-03-28T15:32:07.213Z,94.60
2023-03-28T15:34:45.783Z,92.40
2023-03-28T15:37:21.209Z,90.40
2023-03-28T15:39:50.960Z,90.60
2023-03-28T15:42:21.361Z,87.80
2023-03-28T15:44:57.354Z,88.20
2023-03-28T15:47:29.541Z,89.00
2023-03-28T15:50:03.329Z,90.60
2023-03-28T15:52:31.821Z,91.60
2023-03-28T15:55:01.768Z,92.20
2023-03-28T15:57:30.567Z,91.80
2023-03-28T15:59:58.835Z,90.90
2023-03-28T16:02:26.485Z,91.30
2023-03-28T16:05:14.105Z,91.60
2023-03-28T16:07:47.847Z,91.30
2023-03-28T16:10:17.353Z,91.10
2023-03-28T16:12:46.082Z,90.30
2023-03-28T16:15:13.512Z,90.40
2023-03-28T16:17:43.228Z,90.90
2023-03-28T16:20:16.563Z,86.80
2023-03-28T16:22:44.670Z,82.90
2023-03-28T16:25:12.107Z,84.10
2023-03-28T16:27:40.253Z,84.30
2023-03-28T16:30:18.856Z,83.00
2023-03-28T16:32:46.691Z,81.40
2023-03-28T16:35:13.829Z,81.70
2023-03-28T16:37:41.610Z,82.00
2023-03-28T16:40:10.498Z,83.60
2023-03-28T16:42:37.949Z,82.30
2023-03-28T16:45:05.846Z,79.90
2023-03-28T16:47:33.420Z,80.60
2023-03-28T16:50:01.346Z,80.90
2023-03-28T16:52:30.054Z,79.50
2023-03-28T16:54:57.406Z,79.50
2023-03-28T16:57:24.944Z,80.80
2023-03-28T16:59:52.051Z,81.80
2023-03-28T17:02:19.725Z,81.30
2023-03-28T17:04:50.899Z,82.90
2023-03-28T17:07:18.675Z,82.50
2023-03-28T17:09:46.206Z,83.40
2023-03-28T17:12:13.460Z,85.20
2023-03-28T17:14:40.733Z,84.50
2023-03-28T17:17:08.621Z,85.80
2023-03-28T17:19:35.985Z,86.40
2023-03-28T17:22:03.684Z,86.30
2023-03-28T17:24:30.699Z,85.10
2023-03-28T17:26:58.264Z,86.50
2023-03-28T17:29:25.607Z,87.90
2023-03-28T17:31:53.620Z,87.60
2023-03-28T17:34:20.997Z,88.10
2023-03-28T17:36:48.958Z,87.90
2023-03-28T17:39:16.631Z,87.90
2023-03-28T17:41:44.374Z,88.50
2023-03-28T17:44:11.398Z,89.20
2023-03-28T17:46:39.300Z,89.70
2023-03-28T17:49:08.094Z,90.00
2023-03-28T17:51:35.732Z,90.00
2023-03-28T17:54:06.489Z,88.70
2023-03-28T17:56:34.068Z,89.70
2023-03-28T17:59:01.252Z,89.60
2023-03-28T18:01:28.855Z,89.90
2023-03-28T18:03:56.635Z,90.00
2023-03-28T18:06:24.726Z,89.70
2023-03-28T18:08:52.019Z,89.50
2023-03-28T18:11:20.107Z,89.40
2023-03-28T18:13:47.312Z,88.60
2023-03-28T18:16:18.142Z,89.10
2023-03-28T18:18:45.879Z,90.10
2023-03-28T18:21:12.924Z,90.10
2023-03-28T18:23:40.372Z,90.20
2023-03-28T18:26:08.092Z,90.40
2023-03-28T18:28:36.807Z,90.70
2023-03-28T18:31:08.967Z,90.70
2023-03-28T18:33:37.610Z,90.20
2023-03-28T18:36:05.650Z,90.00
2023-03-28T18:38:38.762Z,90.00
2023-03-28T18:41:08.238Z,89.90
2023-03-28T18:43:37.476Z,89.40
2023-03-28T18:46:07.747Z,90.00
2023-03-28T18:48:35.932Z,90.00
2023-03-28T18:51:03.315Z,90.30
2023-03-28T18:53:30.888Z,90.80
2023-03-28T18:55:58.486Z,91.40
2023-03-28T18:58:26.336Z,91.60
2023-03-28T19:00:59.233Z,91.70
2023-03-28T19:03:28.355Z,91.70
2023-03-28T19:06:01.270Z,91.70
2023-03-28T19:08:30.302Z,91.90
2023-03-28T19:11:00.156Z,92.20
2023-03-28T19:13:29.267Z,92.50
2023-03-28T19:16:00.390Z,92.60
2023-03-28T19:18:28.838Z,92.80
2023-03-28T19:20:57.054Z,93.20
2023-03-28T19:23:27.433Z,93.40
2023-03-28T19:25:55.376Z,93.80
2023-03-28T19:28:22.794Z,94.10
2023-03-28T19:30:56.827Z,94.40
2023-03-28T19:33:24.418Z,94.60
2023-03-28T19:35:51.492Z,94.40
2023-03-28T19:38:19.875Z,94.90
2023-03-28T19:40:47.378Z,94.90
2023-03-28T19:43:20.871Z,94.90
2023-03-28T19:45:48.431Z,95.10
2023-03-28T19:48:16.408Z,95.20
2023-03-28T19:50:44.197Z,95.40
2023-03-28T19:53:11.597Z,95.40
2023-03-28T19:55:38.664Z,95.40
2023-03-28T19:58:07.494Z,95.30
2023-03-28T20:00:34.674Z,95.30
2023-03-28T20:03:03.133Z,95.50
2023-03-28T20:05:30.377Z,95.70
2023-03-28T20:07:57.700Z,96.10
2023-03-28T20:10:24.728Z,95.50
2023-03-28T20:12:52.285Z,95.70
2023-03-28T20:15:19.307Z,95.90
2023-03-28T20:17:46.649Z,96.00
2023-03-28T20:20:13.661Z,96.20
2023-03-28T20:22:40.932Z,96.40
2023-03-28T20:25:08.320Z,96.40
2023-03-28T20:27:36.407Z,95.90
2023-03-28T20:30:05.673Z,95.70
2023-03-28T20:32:33.016Z,95.70
2023-03-28T20:35:00.287Z,95.90
2023-03-28T20:37:28.021Z,96.20
2023-03-28T20:39:55.363Z,96.70
2023-03-28T20:42:24.343Z,97.10
2023-03-28T20:44:51.396Z,97.40
2023-03-28T20:47:24.218Z,97.10
2023-03-28T20:49:56.322Z,97.30
2023-03-28T20:52:23.927Z,97.70
2023-03-28T20:54:51.046Z,98.10
2023-03-28T20:57:18.460Z,98.40
2023-03-28T20:59:45.560Z,98.30
2023-03-28T21:02:13.206Z,99.30
2023-03-28T21:04:40.347Z,99.70
2023-03-28T21:07:07.677Z,99.90
2023-03-28T21:09:34.704Z,99.90
2023-03-28T21:12:01.946Z,99.90
2023-03-28T21:14:29.288Z,99.90
2023-03-28T21:16:57.945Z,99.90
2023-03-28T21:19:25.007Z,99.90
2023-03-28T21:21:52.454Z,99.90
2023-03-28T21:24:21.025Z,99.90
2023-03-28T21:26:48.335Z,99.90
2023-03-28T21:29:15.414Z,99.90
2023-03-28T21:31:42.735Z,99.90
2023-03-28T21:34:09.931Z,99.90
2023-03-28T21:36:37.285Z,99.90
2023-03-28T21:39:04.501Z,99.90
2023-03-28T21:41:31.858Z,99.90
2023-03-28T21:43:58.844Z,99.90
2023-03-28T21:46:26.336Z,99.90
2023-03-28T21:48:54.013Z,99.90
2023-03-28T21:51:21.600Z,99.90
2023-03-28T21:53:48.590Z,99.90
2023-03-28T21:56:16.839Z,99.90
2023-03-28T21:58:44.146Z,99.90
2023-03-28T22:01:13.988Z,99.90
2023-03-28T22:03:41.182Z,99.90
2023-03-28T22:06:09.013Z,99.90
2023-03-28T22:08:36.090Z,99.90
2023-03-28T22:11:10.909Z,99.90
2023-03-28T22:13:38.795Z,99.90
2023-03-28T22:16:09.283Z,99.90
2023-03-28T22:18:39.331Z,99.90
2023-03-28T22:21:09.042Z,99.90
2023-03-28T22:23:36.150Z,99.90
2023-03-28T22:26:03.690Z,99.90
2023-03-28T22:28:31.092Z,99.90
2023-03-28T22:30:58.426Z,99.90
2023-03-28T22:33:25.690Z,99.90
2023-03-28T22:35:53.397Z,99.90
2023-03-28T22:38:20.729Z,99.90
2023-03-28T22:40:48.461Z,99.90
2023-03-28T22:43:16.151Z,99.90
2023-03-28T22:45:43.630Z,99.90
2023-03-28T22:48:17.083Z,99.90
2023-03-28T22:50:44.780Z,99.90
2023-03-28T23:00:36.732Z,99.90
2023-03-28T23:03:04.316Z,99.90
2023-03-28T23:10:28.120Z,99.90
2023-03-28T23:15:22.910Z,99.90
2023-03-28T23:17:50.439Z,99.90
2023-03-28T23:20:19.135Z,99.90
2023-03-28T23:22:47.918Z,99.90
2023-03-28T23:25:18.444Z,99.90
2023-03-28T23:27:45.825Z,99.90
2023-03-28T23:30:15.331Z,99.90
2023-03-28T23:35:11.672Z,99.90
2023-03-28T23:37:39.338Z,99.90
2023-03-28T23:40:14.572Z,99.90
2023-03-28T23:42:44.427Z,99.90
2023-03-28T23:45:14.696Z,99.90
2023-03-28T23:47:43.656Z,99.90
2023-03-28T23:50:11.554Z,99.90
2023-03-28T23:52:38.632Z,99.90
2023-03-28T23:55:08.665Z,99.90
